Time;durP1;ratioP1;P1;durP2;ratioP2;P2;SDS_P1;SDS_P2;PMS_P1;PMS_P2;Temp;Humidity;BMP_temperature;BMP_pressure;BME280_temperature;BME280_humidity;BME280_pressure;Samples;Min_cycle;Max_cycle;Signal;HPM_P1;HPM_P2
2022/02/20 00:01:53;;;;;;;0.30;0.30;;;5.00;80.90;;;;;;5015210;28;20187;-74
2022/02/20 00:04:18;;;;;;;0.40;0.40;;;5.00;80.20;;;;;;5015368;28;20255;-75
2022/02/20 00:06:44;;;;;;;0.40;0.40;;;5.10;79.50;;;;;;5015127;28;20171;-75
2022/02/20 00:09:10;;;;;;;0.30;0.30;;;5.20;79.70;;;;;;5015003;28;20472;-74
2022/02/20 00:11:36;;;;;;;0.40;0.40;;;5.20;79.60;;;;;;5015187;28;20176;-75
2022/02/20 00:14:02;;;;;;;0.30;0.30;;;5.20;79.50;;;;;;5013662;28;20509;-74
2022/02/20 00:16:28;;;;;;;0.40;0.40;;;5.20;79.70;;;;;;5014743;28;20172;-75
2022/02/20 00:18:53;;;;;;;0.30;0.30;;;5.20;80.70;;;;;;5014795;28;20171;-74
2022/02/20 00:21:19;;;;;;;0.30;0.30;;;5.00;79.90;;;;;;5014821;28;20468;-74
2022/02/20 00:23:44;;;;;;;0.30;0.30;;;5.00;79.80;;;;;;5014675;28;20191;-74
2022/02/20 00:26:10;;;;;;;0.40;0.40;;;4.80;79.20;;;;;;5014592;28;20199;-75
2022/02/20 00:28:36;;;;;;;0.40;0.40;;;4.90;79.70;;;;;;5014786;28;20556;-75
2022/02/20 00:31:01;;;;;;;0.30;0.30;;;5.10;80.50;;;;;;5014535;28;20176;-75
2022/02/20 00:33:27;;;;;;;0.40;0.40;;;5.10;79.90;;;;;;5014534;28;20187;-75
2022/02/20 00:35:53;;;;;;;0.40;0.40;;;5.20;79.40;;;;;;5014449;28;20164;-75
2022/02/20 00:38:19;;;;;;;0.40;0.40;;;5.10;79.00;;;;;;5014624;28;20180;-74
2022/02/20 00:40:45;;;;;;;0.40;0.40;;;5.30;79.30;;;;;;5014648;28;20206;-75
2022/02/20 00:43:12;;;;;;;0.30;0.30;;;5.20;79.10;;;;;;5014189;28;20227;-75
2022/02/20 00:45:38;;;;;;;0.40;0.40;;;5.30;79.80;;;;;;5014196;28;20538;-75
2022/02/20 00:48:04;;;;;;;0.30;0.30;;;4.90;79.60;;;;;;5013001;28;20211;-75
2022/02/20 00:50:30;;;;;;;0.40;0.40;;;4.80;80.40;;;;;;5014324;28;20166;-75
2022/02/20 00:52:56;;;;;;;0.40;0.40;;;5.00;82.50;;;;;;5014107;28;20442;-75
2022/02/20 00:55:22;;;;;;;0.40;0.40;;;5.00;81.70;;;;;;5014144;28;20442;-74
2022/02/20 00:57:48;;;;;;;0.40;0.40;;;4.70;81.00;;;;;;5014335;28;20406;-74
2022/02/20 01:00:15;;;;;;;0.40;0.40;;;4.60;82.10;;;;;;5014358;28;20176;-74
2022/02/20 01:02:41;;;;;;;0.40;0.40;;;4.60;82.50;;;;;;5014242;28;20192;-75
2022/02/20 01:05:07;;;;;;;0.40;0.40;;;4.60;82.20;;;;;;5013863;28;20669;-75
2022/02/20 01:07:33;;;;;;;0.30;0.30;;;4.70;82.50;;;;;;5013978;28;20199;-74
2022/02/20 01:09:59;;;;;;;0.40;0.40;;;4.90;82.20;;;;;;5014116;28;20564;-75
2022/02/20 01:12:25;;;;;;;0.37;0.37;;;4.90;82.30;;;;;;5012727;28;20444;-75
2022/02/20 01:14:50;;;;;;;0.40;0.40;;;4.80;82.50;;;;;;5013901;28;20646;-75
2022/02/20 01:17:16;;;;;;;0.30;0.30;;;5.00;83.60;;;;;;5013831;28;20275;-75
2022/02/20 01:19:42;;;;;;;0.40;0.40;;;4.90;82.80;;;;;;5014126;28;20199;-75
2022/02/20 01:22:08;;;;;;;0.40;0.40;;;5.00;83.20;;;;;;5013858;28;20205;-75
2022/02/20 01:24:34;;;;;;;0.30;0.30;;;5.00;82.90;;;;;;5012495;28;20735;-74
2022/02/20 01:27:00;;;;;;;0.40;0.40;;;5.00;82.90;;;;;;5013822;28;20203;-74
2022/02/20 01:29:26;;;;;;;0.40;0.40;;;4.80;83.90;;;;;;5012557;28;20257;-74
2022/02/20 01:31:53;;;;;;;0.40;0.40;;;4.70;84.10;;;;;;5013484;28;20500;-74
2022/02/20 01:34:22;;;;;;;0.40;0.40;;;4.90;84.40;;;;;;5012466;28;20547;-75
2022/02/20 01:36:48;;;;;;;0.40;0.40;;;5.00;84.10;;;;;;5013655;28;20174;-74
2022/02/20 01:39:14;;;;;;;0.30;0.30;;;4.90;84.60;;;;;;5013785;28;20714;-74
2022/02/20 01:41:39;;;;;;;0.40;0.40;;;5.00;85.40;;;;;;5013910;28;20414;-75
2022/02/20 01:44:06;;;;;;;0.40;0.40;;;4.80;85.70;;;;;;5014202;28;20178;-75
2022/02/20 01:46:32;;;;;;;0.40;0.40;;;4.80;86.10;;;;;;5013425;28;20636;-74
2022/02/20 01:48:58;;;;;;;0.40;0.40;;;4.90;86.80;;;;;;5013540;28;20218;-74
2022/02/20 01:51:24;;;;;;;0.40;0.40;;;5.10;86.50;;;;;;5013749;28;20259;-75
2022/02/20 01:53:50;;;;;;;0.30;0.30;;;5.20;86.00;;;;;;5013923;28;20203;-74
2022/02/20 01:56:16;;;;;;;0.40;0.40;;;5.20;85.80;;;;;;5017332;28;20199;-74
2022/02/20 01:58:42;;;;;;;0.40;0.40;;;5.10;86.00;;;;;;5017416;28;20175;-74
2022/02/20 02:01:08;;;;;;;0.40;0.40;;;4.70;86.80;;;;;;5017358;28;20416;-74
2022/02/20 02:03:38;;;;;;;0.30;0.30;;;4.60;87.80;;;;;;5017285;28;20557;-74
2022/02/20 02:06:04;;;;;;;0.40;0.40;;;4.60;88.00;;;;;;5015930;28;20672;-74
2022/02/20 02:08:30;;;;;;;0.30;0.30;;;4.80;88.20;;;;;;5017378;28;20694;-74
2022/02/20 02:10:55;;;;;;;0.33;0.33;;;4.80;88.20;;;;;;5017278;28;20211;-74
2022/02/20 02:13:21;;;;;;;0.30;0.30;;;4.70;88.50;;;;;;5017107;28;20198;-74
2022/02/20 02:15:52;;;;;;;0.40;0.40;;;4.60;89.40;;;;;;5017126;28;20202;-74
2022/02/20 02:18:18;;;;;;;0.35;0.35;;;4.60;89.90;;;;;;5017144;28;20194;-74
2022/02/20 02:20:44;;;;;;;0.40;0.40;;;4.70;90.10;;;;;;5017165;28;20172;-74
2022/02/20 02:23:11;;;;;;;0.30;0.30;;;4.70;90.10;;;;;;5017166;28;20199;-74
2022/02/20 02:25:38;;;;;;;0.40;0.40;;;4.70;90.20;;;;;;5016777;28;20182;-74
2022/02/20 02:28:04;;;;;;;0.30;0.30;;;4.80;90.20;;;;;;5017049;28;20751;-74
2022/02/20 02:30:30;;;;;;;0.40;0.40;;;4.60;90.50;;;;;;5016958;28;20579;-74
2022/02/20 02:32:56;;;;;;;0.38;0.38;;;4.70;90.60;;;;;;5016929;28;20278;-74
2022/02/20 02:35:22;;;;;;;0.33;0.33;;;4.90;90.70;;;;;;5016847;28;20705;-74
2022/02/20 02:37:47;;;;;;;0.30;0.30;;;4.60;90.60;;;;;;5016959;28;20202;-74
2022/02/20 02:40:13;;;;;;;0.30;0.30;;;4.60;90.90;;;;;;5016954;28;20172;-74
2022/02/20 02:42:39;;;;;;;0.30;0.30;;;4.50;91.10;;;;;;5016615;28;20199;-75
2022/02/20 02:45:05;;;;;;;0.40;0.40;;;4.30;91.70;;;;;;5016404;28;20230;-75
2022/02/20 02:47:31;;;;;;;0.40;0.40;;;4.30;92.00;;;;;;5016659;28;20230;-75
2022/02/20 02:49:57;;;;;;;0.37;0.37;;;4.20;92.40;;;;;;5016690;28;20629;-74
2022/02/20 02:52:22;;;;;;;0.40;0.40;;;4.30;92.60;;;;;;5016412;28;20214;-75
2022/02/20 02:54:48;;;;;;;0.40;0.40;;;4.50;92.60;;;;;;5016421;28;20250;-75
2022/02/20 02:57:14;;;;;;;0.40;0.40;;;4.60;92.50;;;;;;5016268;28;20172;-75
2022/02/20 02:59:40;;;;;;;0.40;0.40;;;4.90;92.10;;;;;;5016558;28;20175;-74
2022/02/20 03:02:07;;;;;;;0.30;0.30;;;4.70;92.00;;;;;;5016367;28;20290;-74
2022/02/20 03:04:33;;;;;;;0.40;0.40;;;4.70;92.30;;;;;;5016231;28;20168;-74
2022/02/20 03:06:59;;;;;;;0.40;0.40;;;4.70;92.40;;;;;;5016027;28;20186;-75
2022/02/20 03:09:26;;;;;;;0.40;0.40;;;4.50;92.50;;;;;;5016225;28;20451;-74
2022/02/20 03:11:52;;;;;;;0.30;0.30;;;4.40;93.00;;;;;;5016016;28;20504;-74
2022/02/20 03:14:18;;;;;;;0.35;0.35;;;4.60;93.10;;;;;;5016071;28;20516;-74
2022/02/20 03:16:43;;;;;;;0.40;0.40;;;4.70;92.70;;;;;;5015976;28;20179;-74
2022/02/20 03:19:09;;;;;;;0.40;0.40;;;4.60;92.80;;;;;;5016068;28;20461;-74
2022/02/20 03:21:35;;;;;;;0.30;0.30;;;4.80;93.00;;;;;;5016042;28;20176;-75
2022/02/20 03:24:01;;;;;;;0.40;0.40;;;4.70;92.80;;;;;;5015865;28;20171;-75
2022/02/20 03:26:26;;;;;;;0.33;0.33;;;4.70;92.90;;;;;;5015862;28;20461;-74
2022/02/20 03:28:52;;;;;;;0.40;0.40;;;4.60;93.00;;;;;;5014512;28;20199;-75
2022/02/20 03:31:18;;;;;;;0.40;0.40;;;4.70;93.30;;;;;;5015829;28;20655;-74
2022/02/20 03:33:43;;;;;;;0.30;0.30;;;4.80;93.30;;;;;;5014401;28;20191;-74
2022/02/20 03:36:09;;;;;;;0.37;0.37;;;5.00;93.00;;;;;;5014278;28;20411;-74
2022/02/20 03:38:35;;;;;;;0.33;0.33;;;4.70;93.50;;;;;;5015692;28;20167;-75
2022/02/20 03:41:02;;;;;;;0.40;0.40;;;4.70;93.70;;;;;;5015595;28;20439;-74
2022/02/20 03:43:28;;;;;;;0.30;0.30;;;4.70;94.00;;;;;;5014460;28;20433;-75
2022/02/20 03:45:54;;;;;;;0.40;0.40;;;4.80;94.10;;;;;;5015275;28;20228;-74
2022/02/20 03:48:20;;;;;;;0.40;0.40;;;4.90;94.10;;;;;;5015547;28;20268;-74
2022/02/20 03:50:46;;;;;;;0.37;0.37;;;4.30;94.30;;;;;;5015533;28;20171;-75
2022/02/20 03:53:12;;;;;;;0.40;0.40;;;4.40;95.10;;;;;;5013910;28;20293;-75
2022/02/20 03:55:37;;;;;;;0.30;0.30;;;4.40;95.00;;;;;;5015128;28;20254;-74
2022/02/20 03:58:03;;;;;;;0.30;0.30;;;4.30;95.30;;;;;;5015561;28;20218;-75
2022/02/20 04:00:30;;;;;;;0.40;0.40;;;4.40;95.50;;;;;;5015308;28;20196;-75
2022/02/20 04:02:56;;;;;;;0.30;0.30;;;4.40;95.50;;;;;;5015197;28;20192;-74
2022/02/20 04:05:22;;;;;;;0.40;0.40;;;4.50;95.60;;;;;;5015098;28;20184;-75
2022/02/20 04:07:48;;;;;;;0.40;0.40;;;4.40;95.40;;;;;;5014992;28;20286;-75
2022/02/20 04:10:14;;;;;;;0.40;0.40;;;4.50;95.70;;;;;;5014953;28;20270;-75
2022/02/20 04:12:41;;;;;;;0.40;0.40;;;4.80;95.70;;;;;;5015078;28;20180;-75
2022/02/20 04:15:07;;;;;;;0.40;0.40;;;4.80;95.30;;;;;;5014984;28;20180;-75
2022/02/20 04:17:41;;;;;;;0.40;0.40;;;4.50;95.50;;;;;;5014833;28;20199;-74
2022/02/20 04:20:12;;;;;;;0.40;0.40;;;4.50;96.00;;;;;;5015054;28;20218;-75
2022/02/20 04:22:38;;;;;;;0.40;0.40;;;4.80;96.00;;;;;;5014943;28;20195;-75
2022/02/20 04:25:04;;;;;;;0.30;0.30;;;5.00;95.70;;;;;;5014565;28;20190;-75
2022/02/20 04:27:30;;;;;;;0.30;0.30;;;5.10;95.20;;;;;;5014885;28;20613;-75
2022/02/20 04:29:55;;;;;;;0.40;0.40;;;5.30;95.20;;;;;;5014846;28;20172;-74
2022/02/20 04:32:21;;;;;;;0.30;0.30;;;5.10;94.90;;;;;;5014677;28;20187;-75
2022/02/20 04:34:46;;;;;;;0.40;0.40;;;5.20;95.00;;;;;;5014608;28;20543;-74
2022/02/20 04:37:12;;;;;;;0.40;0.40;;;5.20;95.40;;;;;;5013057;28;20172;-74
2022/02/20 04:39:38;;;;;;;0.30;0.30;;;5.20;95.10;;;;;;5013308;28;20183;-74
2022/02/20 04:42:04;;;;;;;0.40;0.40;;;5.20;95.40;;;;;;5014573;28;20194;-75
2022/02/20 04:44:29;;;;;;;0.40;0.40;;;5.30;95.20;;;;;;5014559;28;20172;-74
2022/02/20 04:46:55;;;;;;;0.40;0.40;;;5.10;95.20;;;;;;5014454;28;20638;-75
2022/02/20 04:49:20;;;;;;;0.30;0.30;;;5.00;95.50;;;;;;5014432;28;20196;-74
2022/02/20 04:51:46;;;;;;;0.40;0.40;;;5.20;95.70;;;;;;5014125;28;20235;-75
2022/02/20 04:54:12;;;;;;;0.30;0.30;;;5.30;95.50;;;;;;5014324;28;20179;-75
2022/02/20 04:56:37;;;;;;;0.30;0.30;;;5.20;95.40;;;;;;5014194;28;20203;-75
2022/02/20 04:59:03;;;;;;;0.40;0.40;;;5.20;95.70;;;;;;5014288;28;20229;-75
2022/02/20 05:01:29;;;;;;;0.40;0.40;;;5.10;95.70;;;;;;5014030;28;20692;-74
2022/02/20 05:03:54;;;;;;;0.40;0.40;;;5.10;96.10;;;;;;5014067;28;20258;-74
2022/02/20 05:06:27;;;;;;;0.40;0.40;;;5.00;96.40;;;;;;5014117;28;20183;-75
2022/02/20 05:08:54;;;;;;;0.30;0.30;;;5.10;96.70;;;;;;5014075;28;20199;-74
2022/02/20 05:11:20;;;;;;;0.40;0.40;;;5.30;96.60;;;;;;5014090;28;20652;-74
2022/02/20 05:13:46;;;;;;;0.40;0.40;;;5.30;96.50;;;;;;5014037;28;20274;-74
2022/02/20 05:16:11;;;;;;;0.40;0.40;;;5.20;96.80;;;;;;5013897;28;20403;-74
2022/02/20 05:18:37;;;;;;;0.40;0.40;;;5.40;96.80;;;;;;5014124;28;20168;-74
2022/02/20 05:21:03;;;;;;;0.40;0.40;;;5.40;96.80;;;;;;5013894;28;20175;-75
2022/02/20 05:23:28;;;;;;;0.30;0.30;;;5.30;96.60;;;;;;5013846;28;20226;-75
2022/02/20 05:25:54;;;;;;;0.30;0.30;;;5.30;97.10;;;;;;5013707;28;20178;-74
2022/02/20 05:28:19;;;;;;;0.30;0.30;;;5.30;96.90;;;;;;5013204;28;20195;-74
2022/02/20 05:30:45;;;;;;;0.30;0.30;;;5.40;97.10;;;;;;5013583;28;20266;-75
2022/02/20 05:33:11;;;;;;;0.30;0.30;;;5.30;97.00;;;;;;5013714;28;20187;-75
2022/02/20 05:35:36;;;;;;;0.40;0.40;;;5.40;97.10;;;;;;5013582;28;20210;-75
2022/02/20 05:38:03;;;;;;;0.30;0.30;;;5.40;96.90;;;;;;5013883;28;20171;-75
2022/02/20 05:40:29;;;;;;;0.38;0.38;;;5.50;96.70;;;;;;5012823;28;20501;-72
2022/02/20 05:42:57;;;;;;;0.30;0.30;;;5.40;96.70;;;;;;5012587;28;20382;-75
2022/02/20 05:45:23;;;;;;;0.30;0.30;;;5.40;96.80;;;;;;5012846;28;20477;-73
2022/02/20 05:47:49;;;;;;;0.40;0.40;;;5.40;96.90;;;;;;5011965;28;20665;-73
2022/02/20 05:50:15;;;;;;;0.40;0.40;;;5.40;97.00;;;;;;5011508;28;20178;-74
2022/02/20 05:52:41;;;;;;;0.40;0.40;;;5.50;96.90;;;;;;5012278;28;20952;-71
2022/02/20 05:55:08;;;;;;;0.30;0.30;;;5.40;96.90;;;;;;5013984;28;20222;-74
2022/02/20 05:57:49;;;;;;;0.32;0.32;;;5.50;96.80;;;;;;5013824;28;20174;-76
2022/02/20 06:00:17;;;;;;;0.30;0.30;;;5.40;96.70;;;;;;5014322;28;20195;-74
2022/02/20 06:02:43;;;;;;;0.40;0.40;;;5.10;96.90;;;;;;5013831;28;20194;-74
2022/02/20 06:05:09;;;;;;;0.40;0.40;;;5.00;97.60;;;;;;5013726;28;20176;-74
2022/02/20 06:07:35;;;;;;;0.30;0.30;;;4.80;97.90;;;;;;5014129;28;20179;-74
2022/02/20 06:10:02;;;;;;;0.40;0.40;;;5.00;98.30;;;;;;5014183;28;20175;-77
2022/02/20 06:12:28;;;;;;;0.40;0.40;;;5.00;98.10;;;;;;5014281;28;20552;-74
2022/02/20 06:14:54;;;;;;;0.30;0.30;;;5.10;98.00;;;;;;5013464;28;20175;-75
2022/02/20 06:17:19;;;;;;;0.33;0.33;;;5.10;97.70;;;;;;5013190;28;20167;-76
2022/02/20 06:19:45;;;;;;;0.40;0.40;;;5.20;97.70;;;;;;5012069;28;20202;-71
2022/02/20 06:22:12;;;;;;;0.30;0.30;;;5.40;97.50;;;;;;5012194;28;20277;-78
2022/02/20 06:24:37;;;;;;;0.30;0.30;;;5.40;97.30;;;;;;5012399;28;20164;-74
2022/02/20 06:27:04;;;;;;;0.30;0.30;;;5.50;97.20;;;;;;5013439;28;20514;-72
2022/02/20 06:29:30;;;;;;;0.30;0.30;;;5.40;97.00;;;;;;5013387;28;20837;-77
2022/02/20 06:31:56;;;;;;;0.40;0.40;;;5.10;97.40;;;;;;5012232;28;20198;-73
2022/02/20 06:34:22;;;;;;;0.40;0.40;;;5.10;97.70;;;;;;5012985;28;20180;-73
2022/02/20 06:36:47;;;;;;;0.50;0.50;;;5.40;97.70;;;;;;5010315;28;20172;-73
2022/02/20 06:39:13;;;;;;;0.37;0.37;;;5.60;97.40;;;;;;5013467;28;20177;-73
2022/02/20 06:41:39;;;;;;;0.30;0.30;;;5.70;96.90;;;;;;5016926;28;20167;-73
2022/02/20 06:44:05;;;;;;;0.33;0.33;;;5.70;96.80;;;;;;5016746;28;20179;-73
2022/02/20 06:46:31;;;;;;;0.30;0.30;;;5.80;96.60;;;;;;5016797;28;20164;-77
2022/02/20 06:48:57;;;;;;;0.30;0.30;;;5.70;96.50;;;;;;5015943;28;20196;-78
2022/02/20 06:51:23;;;;;;;0.40;0.40;;;5.80;96.50;;;;;;5015584;28;20226;-77
2022/02/20 06:53:48;;;;;;;0.30;0.30;;;5.90;96.30;;;;;;5017198;28;20239;-75
2022/02/20 06:56:14;;;;;;;0.40;0.40;;;6.00;96.10;;;;;;5015496;28;20183;-75
2022/02/20 06:58:40;;;;;;;0.40;0.40;;;6.00;95.90;;;;;;5016805;28;20182;-73
2022/02/20 07:01:06;;;;;;;0.40;0.40;;;5.80;96.10;;;;;;5016550;28;20417;-72
2022/02/20 07:03:32;;;;;;;0.40;0.40;;;5.60;96.40;;;;;;5016465;28;20195;-79
2022/02/20 07:05:58;;;;;;;0.40;0.40;;;5.60;96.50;;;;;;5016381;28;20407;-77
2022/02/20 07:08:24;;;;;;;0.40;0.40;;;5.60;96.70;;;;;;5017238;28;20600;-76
2022/02/20 07:10:49;;;;;;;0.40;0.40;;;5.60;96.70;;;;;;5016249;28;20168;-73
2022/02/20 07:13:15;;;;;;;0.40;0.40;;;5.60;96.60;;;;;;5016316;28;20685;-73
2022/02/20 07:15:41;;;;;;;0.40;0.40;;;5.70;96.70;;;;;;5016125;28;20196;-73
2022/02/20 07:18:07;;;;;;;0.40;0.40;;;5.90;96.40;;;;;;5015582;28;20218;-73
2022/02/20 07:20:33;;;;;;;0.30;0.30;;;5.90;96.20;;;;;;5016149;28;20696;-76
2022/02/20 07:22:59;;;;;;;0.38;0.38;;;5.80;96.30;;;;;;5014061;28;20976;-78
2022/02/20 07:25:25;;;;;;;0.40;0.40;;;5.80;96.20;;;;;;5013989;28;20218;-78
2022/02/20 07:27:54;;;;;;;0.40;0.40;;;6.00;96.20;;;;;;5015947;28;20450;-74
2022/02/20 07:30:22;;;;;;;0.30;0.30;;;6.10;95.80;;;;;;5015102;28;20638;-75
2022/02/20 07:32:47;;;;;;;0.40;0.40;;;6.20;95.50;;;;;;5015706;28;20290;-80
2022/02/20 07:35:13;;;;;;;0.30;0.30;;;6.20;95.30;;;;;;5016483;28;20203;-76
2022/02/20 07:37:39;;;;;;;0.40;0.40;;;6.00;95.50;;;;;;5020076;28;20175;-75
2022/02/20 07:40:07;;;;;;;0.40;0.40;;;6.00;95.80;;;;;;5014707;28;20507;-72
2022/02/20 07:42:34;;;;;;;0.40;0.40;;;6.20;95.90;;;;;;5015883;28;20552;-76
2022/02/20 07:44:59;;;;;;;0.30;0.30;;;6.30;95.70;;;;;;5013547;28;20167;-75
2022/02/20 07:47:26;;;;;;;0.40;0.40;;;6.40;95.60;;;;;;5013320;28;20178;-77
2022/02/20 07:49:52;;;;;;;0.40;0.40;;;6.30;95.40;;;;;;5013932;28;20172;-73
2022/02/20 07:52:18;;;;;;;0.40;0.40;;;6.30;95.70;;;;;;5014700;28;20302;-73
2022/02/20 07:54:44;;;;;;;0.30;0.30;;;6.30;95.80;;;;;;5016106;28;20169;-77
2022/02/20 07:57:09;;;;;;;0.40;0.40;;;6.30;96.00;;;;;;5014944;28;20175;-77
2022/02/20 07:59:36;;;;;;;0.40;0.40;;;6.10;96.20;;;;;;5015330;28;20175;-75
2022/02/20 08:02:02;;;;;;;0.30;0.30;;;6.10;96.60;;;;;;5015216;28;20211;-74
2022/02/20 08:04:29;;;;;;;0.40;0.40;;;6.10;96.50;;;;;;5015245;28;20183;-73
2022/02/20 08:06:55;;;;;;;0.30;0.30;;;6.20;96.50;;;;;;5012546;28;20274;-74
2022/02/20 08:09:21;;;;;;;0.30;0.30;;;6.20;96.50;;;;;;5014209;28;20286;-73
2022/02/20 08:11:46;;;;;;;0.30;0.30;;;6.30;96.40;;;;;;5014968;28;20172;-74
2022/02/20 08:14:12;;;;;;;0.40;0.40;;;6.10;96.60;;;;;;5015528;28;20191;-78
2022/02/20 08:16:38;;;;;;;0.40;0.40;;;5.90;96.80;;;;;;5015126;28;20168;-76
2022/02/20 08:19:04;;;;;;;0.37;0.37;;;5.90;97.10;;;;;;5014925;28;20439;-76
2022/02/20 08:21:29;;;;;;;0.40;0.40;;;5.90;97.20;;;;;;5015075;28;20183;-74
2022/02/20 08:23:55;;;;;;;0.40;0.40;;;6.10;97.20;;;;;;5015680;28;20457;-77
2022/02/20 08:26:24;;;;;;;0.30;0.30;;;6.20;96.90;;;;;;5014528;28;20254;-79
2022/02/20 08:28:50;;;;;;;0.40;0.40;;;6.20;96.70;;;;;;5013931;28;20450;-77
2022/02/20 08:31:16;;;;;;;0.30;0.30;;;6.30;96.70;;;;;;5014504;28;20179;-78
2022/02/20 08:33:42;;;;;;;0.40;0.40;;;6.20;96.80;;;;;;5013761;28;20681;-73
2022/02/20 08:36:09;;;;;;;0.40;0.40;;;6.40;97.00;;;;;;5014654;28;20406;-73
2022/02/20 08:38:36;;;;;;;0.30;0.30;;;6.40;96.50;;;;;;5015235;28;20459;-74
2022/02/20 08:41:02;;;;;;;0.38;0.38;;;6.50;96.50;;;;;;5014742;28;20187;-77
2022/02/20 08:43:28;;;;;;;0.30;0.30;;;6.70;96.30;;;;;;5013567;28;20274;-78
2022/02/20 08:45:54;;;;;;;0.30;0.30;;;6.90;96.00;;;;;;5013264;28;20179;-72
2022/02/20 08:48:20;;;;;;;0.33;0.33;;;6.90;95.70;;;;;;5013573;28;20253;-75
2022/02/20 08:50:46;;;;;;;0.40;0.40;;;6.90;95.70;;;;;;5015096;28;20167;-76
2022/02/20 08:53:12;;;;;;;0.30;0.30;;;6.90;95.80;;;;;;5014251;28;20684;-72
2022/02/20 08:55:38;;;;;;;0.40;0.40;;;6.90;95.80;;;;;;5014228;28;20183;-73
2022/02/20 08:58:05;;;;;;;0.30;0.30;;;6.80;95.40;;;;;;5014593;28;20172;-74
2022/02/20 09:00:31;;;;;;;0.30;0.30;;;6.90;95.30;;;;;;5014399;28;20175;-77
2022/02/20 09:02:56;;;;;;;0.35;0.35;;;7.00;95.20;;;;;;5014151;28;20189;-72
2022/02/20 09:05:22;;;;;;;0.30;0.30;;;7.10;95.40;;;;;;5014641;28;20184;-71
2022/02/20 09:07:48;;;;;;;0.40;0.40;;;7.20;95.20;;;;;;5014285;28;20203;-71
2022/02/20 09:10:14;;;;;;;0.40;0.40;;;7.20;94.90;;;;;;5014345;28;20442;-75
2022/02/20 09:12:40;;;;;;;0.40;0.40;;;7.20;94.90;;;;;;5014349;28;20198;-74
2022/02/20 09:15:08;;;;;;;0.40;0.40;;;7.30;95.00;;;;;;5015185;28;20246;-72
2022/02/20 09:17:34;;;;;;;1.67;1.30;;;7.20;94.80;;;;;;5013210;28;20176;-76
2022/02/20 09:20:00;;;;;;;0.40;0.40;;;7.10;94.90;;;;;;5014591;28;20204;-76
2022/02/20 09:22:26;;;;;;;0.50;0.50;;;6.90;95.10;;;;;;5012739;28;20669;-75
2022/02/20 09:24:52;;;;;;;0.30;0.30;;;7.00;95.40;;;;;;5014071;28;20176;-75
2022/02/20 09:27:18;;;;;;;0.40;0.40;;;6.80;95.40;;;;;;5013254;28;20577;-76
2022/02/20 09:29:44;;;;;;;0.40;0.40;;;6.80;95.90;;;;;;5011634;28;20606;-84
2022/02/20 09:32:09;;;;;;;0.40;0.40;;;6.60;96.00;;;;;;5011465;28;20189;-71
2022/02/20 09:34:36;;;;;;;0.40;0.40;;;6.30;96.40;;;;;;5014127;28;20510;-78
2022/02/20 09:37:02;;;;;;;0.40;0.40;;;6.10;97.00;;;;;;5013875;28;20163;-80
2022/02/20 09:39:28;;;;;;;0.30;0.30;;;5.90;97.70;;;;;;5012688;28;20675;-81
2022/02/20 09:41:57;;;;;;;0.40;0.40;;;6.00;98.00;;;;;;5013866;28;20187;-79
2022/02/20 09:44:22;;;;;;;0.38;0.38;;;5.90;98.00;;;;;;5013677;28;20179;-75
2022/02/20 09:46:48;;;;;;;0.40;0.40;;;5.90;98.20;;;;;;5013624;28;20187;-77
2022/02/20 09:49:14;;;;;;;0.40;0.40;;;5.80;98.30;;;;;;5012597;28;20191;-82
2022/02/20 09:51:40;;;;;;;0.40;0.40;;;5.70;98.80;;;;;;5014150;28;20394;-70
2022/02/20 09:54:07;;;;;;;0.40;0.40;;;5.70;98.90;;;;;;5012014;28;20172;-71
2022/02/20 09:56:33;;;;;;;0.40;0.40;;;5.90;98.90;;;;;;5012968;28;20433;-73
2022/02/20 09:58:59;;;;;;;0.40;0.40;;;6.10;98.80;;;;;;5013122;28;20176;-79
2022/02/20 10:01:25;;;;;;;0.40;0.40;;;6.10;98.50;;;;;;5011580;28;20180;-77
2022/02/20 10:03:51;;;;;;;0.30;0.30;;;6.30;98.20;;;;;;5013498;28;20469;-77
2022/02/20 10:06:19;;;;;;;0.30;0.30;;;6.10;98.30;;;;;;5013404;28;20422;-77
2022/02/20 10:08:50;;;;;;;0.40;0.40;;;6.30;98.80;;;;;;5013118;28;20253;-73
2022/02/20 10:11:28;;;;;;;0.32;0.32;;;6.20;98.50;;;;;;5013892;28;20518;-76
2022/02/20 10:14:13;;;;;;;0.40;0.40;;;6.30;98.50;;;;;;5011064;28;20274;-71
2022/02/20 10:16:39;;;;;;;0.40;0.40;;;6.10;98.80;;;;;;5016827;28;20156;-81
2022/02/20 10:19:05;;;;;;;0.40;0.40;;;6.40;98.90;;;;;;5017514;28;20582;-77
2022/02/20 10:21:34;;;;;;;0.40;0.40;;;6.30;98.70;;;;;;5017492;28;20180;-78
2022/02/20 10:24:12;;;;;;;0.60;0.60;;;6.70;98.90;;;;;;5016005;28;20238;-77
2022/02/20 10:26:46;;;;;;;0.40;0.40;;;7.10;98.30;;;;;;5015482;28;20202;-77
2022/02/20 10:29:18;;;;;;;0.40;0.40;;;7.40;97.60;;;;;;5017302;28;20226;-77
2022/02/20 10:31:46;;;;;;;0.40;0.40;;;7.40;96.70;;;;;;5015890;28;20178;-76
2022/02/20 10:34:14;;;;;;;1.35;1.25;;;7.40;96.50;;;;;;5016507;28;20171;-77
2022/02/20 10:36:47;;;;;;;0.30;0.30;;;7.30;96.90;;;;;;5017092;28;20164;-76
2022/02/20 10:39:24;;;;;;;0.30;0.30;;;7.10;97.20;;;;;;5016858;28;20221;-77
2022/02/20 10:41:50;;;;;;;0.40;0.40;;;6.90;97.50;;;;;;5015828;28;20235;-80
2022/02/20 10:44:16;;;;;;;0.38;0.38;;;6.80;97.90;;;;;;5016884;28;20171;-79
2022/02/20 10:46:43;;;;;;;0.30;0.30;;;7.00;98.20;;;;;;5017015;28;20171;-79
2022/02/20 10:49:25;;;;;;;0.30;0.30;;;7.00;97.70;;;;;;5017144;28;20580;-77
2022/02/20 10:51:51;;;;;;;0.40;0.40;;;7.10;97.60;;;;;;5016802;28;20215;-77
2022/02/20 10:54:16;;;;;;;0.30;0.30;;;6.90;97.90;;;;;;5017220;28;20601;-74
2022/02/20 10:56:44;;;;;;;0.40;0.40;;;7.00;98.20;;;;;;5016943;28;20188;-77
2022/02/20 10:59:10;;;;;;;0.30;0.30;;;6.90;97.70;;;;;;5024295;28;20409;-74
2022/02/20 11:01:36;;;;;;;0.32;0.32;;;6.90;98.10;;;;;;5021209;28;20182;-78
2022/02/20 11:04:14;;;;;;;0.33;0.33;;;6.90;98.30;;;;;;5015627;28;20199;-75
2022/02/20 11:06:44;;;;;;;0.30;0.30;;;6.90;98.40;;;;;;5016583;28;20465;-78
2022/02/20 11:09:11;;;;;;;0.30;0.30;;;6.80;98.10;;;;;;5016752;28;20211;-78
2022/02/20 11:11:42;;;;;;;0.40;0.40;;;6.80;98.80;;;;;;5016723;28;20174;-77
2022/02/20 11:14:11;;;;;;;0.30;0.30;;;6.80;98.70;;;;;;5016888;28;20573;-78
2022/02/20 11:16:51;;;;;;;0.40;0.40;;;7.00;98.50;;;;;;5016088;28;20558;-81
2022/02/20 11:19:24;;;;;;;0.40;0.40;;;7.10;98.30;;;;;;5015376;28;20181;-76
2022/02/20 11:22:01;;;;;;;0.30;0.30;;;7.20;98.30;;;;;;5016468;28;20173;-75
2022/02/20 11:24:28;;;;;;;0.30;0.30;;;7.30;98.10;;;;;;5013987;28;20192;-74
2022/02/20 11:26:55;;;;;;;0.40;0.40;;;7.30;97.70;;;;;;5014624;28;20179;-76
2022/02/20 11:29:22;;;;;;;0.30;0.30;;;7.50;97.90;;;;;;5016552;28;20206;-74
2022/02/20 11:31:48;;;;;;;0.65;0.65;;;7.60;97.80;;;;;;5014781;28;20274;-75
2022/02/20 11:34:15;;;;;;;0.30;0.30;;;7.60;97.60;;;;;;5015813;28;20252;-77
2022/02/20 11:36:56;;;;;;;0.30;0.30;;;7.60;97.60;;;;;;5015897;28;20823;-75
2022/02/20 11:39:24;;;;;;;0.30;0.30;;;7.70;97.40;;;;;;5016348;28;20520;-76
2022/02/20 11:42:15;;;;;;;0.30;0.30;;;7.70;97.40;;;;;;5013051;28;20252;-74
2022/02/20 11:44:52;;;;;;;0.30;0.30;;;7.70;97.40;;;;;;5015224;28;20169;-77
2022/02/20 11:47:40;;;;;;;0.30;0.30;;;7.80;97.40;;;;;;5013061;28;20653;-77
2022/02/20 11:50:18;;;;;;;0.30;0.30;;;7.70;97.50;;;;;;5014636;28;20185;-77
2022/02/20 11:52:58;;;;;;;0.40;0.40;;;7.80;97.60;;;;;;5015604;28;20558;-80
2022/02/20 11:55:33;;;;;;;0.40;0.40;;;7.70;97.60;;;;;;5014680;28;20201;-80
2022/02/20 11:58:11;;;;;;;0.30;0.30;;;7.70;97.80;;;;;;5015716;28;20516;-79
2022/02/20 12:00:38;;;;;;;0.30;0.30;;;7.50;97.90;;;;;;5015703;28;20165;-78
2022/02/20 12:03:07;;;;;;;0.40;0.40;;;7.30;97.90;;;;;;5015845;28;20282;-78
2022/02/20 12:05:35;;;;;;;0.35;0.35;;;7.20;98.50;;;;;;5015417;28;20160;-79
2022/02/20 12:08:28;;;;;;;0.40;0.40;;;7.20;98.90;;;;;;5015193;28;20227;-74
2022/02/20 12:11:20;;;;;;;0.30;0.30;;;7.30;98.90;;;;;;5014844;28;20171;-74
2022/02/20 12:13:54;;;;;;;0.32;0.32;;;7.50;98.60;;;;;;5014943;28;20196;-79
2022/02/20 12:16:24;;;;;;;0.40;0.40;;;7.30;98.60;;;;;;5015203;28;20156;-76
2022/02/20 12:19:09;;;;;;;0.40;0.40;;;7.20;99.10;;;;;;5014142;28;20226;-78
2022/02/20 12:22:27;;;;;;;0.40;0.40;;;7.10;99.40;;;;;;5015566;28;20201;-79
2022/02/20 12:24:58;;;;;;;0.30;0.30;;;7.10;99.60;;;;;;4993750;28;20184;-74
2022/02/20 12:27:26;;;;;;;0.35;0.35;;;6.90;99.90;;;;;;4993728;28;20185;-78
2022/02/20 12:30:12;;;;;;;0.40;0.40;;;6.60;99.90;;;;;;5004622;28;20306;-76
2022/02/20 12:32:41;;;;;;;0.40;0.40;;;6.40;99.90;;;;;;5015355;28;20203;-78
2022/02/20 12:35:10;;;;;;;2.88;1.00;;;6.30;99.90;;;;;;5015026;28;20176;-76
2022/02/20 12:37:41;;;;;;;0.40;0.40;;;6.40;99.90;;;;;;5014903;28;20271;-76
2022/02/20 12:40:31;;;;;;;0.30;0.30;;;6.70;99.90;;;;;;5014607;28;20158;-76
2022/02/20 12:43:07;;;;;;;0.32;0.32;;;6.40;99.90;;;;;;5014813;28;20195;-75
2022/02/20 12:45:36;;;;;;;0.40;0.40;;;6.50;99.90;;;;;;5014591;28;20182;-76
2022/02/20 12:48:05;;;;;;;0.40;0.40;;;6.70;99.90;;;;;;5014413;28;20261;-76
2022/02/20 12:50:34;;;;;;;0.30;0.30;;;6.60;99.90;;;;;;5012696;28;20260;-76
2022/02/20 12:53:02;;;;;;;0.30;0.30;;;6.40;99.90;;;;;;5013956;28;20238;-77
2022/02/20 12:55:29;;;;;;;0.30;0.30;;;6.30;99.90;;;;;;5011955;28;20186;-75
2022/02/20 12:58:01;;;;;;;0.40;0.40;;;6.20;99.90;;;;;;5012294;28;20251;-75
2022/02/20 13:00:30;;;;;;;0.32;0.32;;;6.30;99.90;;;;;;5013302;28;20242;-77